KGRK/GRK METAR and TAF weather

Enter ICAO airport designator
Station Type Date Time Source
KGRK METAR 2020/03/28 14:13 UTC NOAA

KGRK 281413Z AUTO 33016G21KT 10SM SCT041 BKN055 BKN070 18/10 A2984 RMK AO2 CIG 044 RWY33 SLP097


Station Type Date Time Source
KGRK Decoded METAR 2020/03/28 14:13 UTC NOAA

Fort Hood, Robert Gray AAF Ft Hood, TX, United States (KGRK) 31-04N 097-49W
Mar 28, 2020 - 10:13 AM EDT / 2020.03.28 1413 UTC
Wind: from the NNW (330 degrees) at 18 MPH (16 KT) gusting to 24 MPH (21 KT):0
Visibility: 10 mile(s):0
Sky conditions: mostly cloudy
Temperature: 64 F (18 C)
Dew Point: 50 F (10 C)
Relative Humidity: 59%
Pressure (altimeter): 29.84 in. Hg (1010 hPa)
ob: KGRK 281413Z AUTO 33016G21KT 10SM SCT041 BKN055 BKN070 18/10 A2984 RMK AO2 CIG 044 RWY33 SLP097
cycle: 14

Station Type Date Time Source
KGRK TAF 2020/03/28 14:48 UTC NOAA

TAF
AMD KGRK 281438Z 2814/2914 31015G20KT 9999 SCT050 QNH2963INS
BECMG 2818/2819 30012G18KT 9999 FEW120 QNH2982INS
BECMG 2900/2901 VRB06KT 9999 SKC QNH2985INS TX27/2820Z TN12/2908Z

Example: see airport list